createdAt,value
2023-02-21T00:02:17.118Z,11.52
2023-02-21T00:05:02.279Z,12.40
2023-02-21T00:07:48.239Z,14.63
2023-02-21T00:10:34.723Z,14.85
2023-02-21T00:13:21.760Z,14.30
2023-02-21T00:16:07.575Z,13.80
2023-02-21T00:18:53.426Z,14.05
2023-02-21T00:21:38.872Z,18.70
2023-02-21T00:24:25.057Z,16.23
2023-02-21T00:27:10.490Z,14.30
2023-02-21T00:29:57.359Z,12.45
2023-02-21T00:32:42.950Z,12.00
2023-02-21T00:35:29.247Z,13.50
2023-02-21T00:38:14.872Z,11.25
2023-02-21T00:41:00.725Z,14.27
2023-02-21T00:43:47.544Z,11.65
2023-02-21T00:46:35.252Z,12.13
2023-02-21T00:49:21.331Z,12.70
2023-02-21T00:52:06.568Z,11.90
2023-02-21T00:54:52.279Z,12.07
2023-02-21T00:57:38.005Z,13.60
2023-02-21T01:00:24.931Z,10.13
2023-02-21T01:03:14.063Z,13.50
2023-02-21T01:05:59.443Z,12.00
2023-02-21T01:08:45.041Z,14.05
2023-02-21T01:11:33.939Z,12.77
2023-02-21T01:14:19.621Z,11.93
2023-02-21T01:17:12.804Z,12.95
2023-02-21T01:20:00.402Z,13.80
2023-02-21T01:22:46.259Z,14.30
2023-02-21T01:25:33.148Z,13.05
2023-02-21T01:28:19.048Z,13.60
2023-02-21T01:31:04.491Z,16.45
2023-02-21T01:33:54.833Z,15.65
2023-02-21T01:36:41.523Z,14.70
2023-02-21T01:39:27.361Z,16.02
2023-02-21T01:42:12.728Z,17.05
2023-02-21T01:44:59.343Z,19.70
2023-02-21T01:47:45.848Z,13.38
2023-02-21T01:50:40.041Z,17.13
2023-02-21T01:53:30.737Z,17.55
2023-02-21T01:56:18.630Z,18.13
2023-02-21T01:59:08.713Z,17.15
2023-02-21T02:02:03.406Z,21.13
2023-02-21T02:04:50.723Z,18.25
2023-02-21T02:07:35.996Z,20.63
2023-02-21T02:10:23.746Z,19.13
2023-02-21T02:13:13.586Z,20.15
2023-02-21T02:15:48.928Z,15.70
2023-02-21T02:18:36.128Z,19.67
2023-02-21T02:21:24.638Z,23.05
2023-02-21T02:24:21.760Z,19.50
2023-02-21T02:27:32.256Z,22.20
2023-02-21T02:30:27.026Z,18.85
2023-02-21T02:33:23.355Z,18.70
2023-02-21T02:35:57.228Z,18.95
2023-02-21T02:38:30.957Z,18.58
2023-02-21T02:41:05.231Z,19.27
2023-02-21T06:48:30.152Z,34.15
2023-02-21T06:50:58.453Z,38.13
2023-02-21T06:53:26.911Z,33.15
2023-02-21T06:55:54.641Z,30.63
2023-02-21T06:58:22.812Z,31.63
2023-02-21T07:00:51.954Z,31.15
2023-02-21T07:03:19.728Z,27.95
2023-02-21T07:05:47.797Z,32.35
2023-02-21T07:08:15.570Z,31.35
2023-02-21T07:10:43.454Z,29.65
2023-02-21T07:13:11.253Z,27.90
2023-02-21T07:15:39.076Z,34.25
2023-02-21T07:18:08.254Z,30.73
2023-02-21T07:20:36.113Z,29.40
2023-02-21T07:23:04.053Z,31.85
2023-02-21T07:25:31.924Z,27.38
2023-02-21T07:27:59.827Z,25.77
2023-02-21T07:30:27.756Z,29.63
2023-02-21T07:32:55.595Z,29.60
2023-02-21T07:35:24.727Z,30.95
2023-02-21T07:37:52.692Z,30.35
2023-02-21T07:40:20.526Z,29.02
2023-02-21T07:42:48.883Z,24.65
2023-02-21T07:45:17.391Z,29.80
2023-02-21T07:47:48.130Z,28.38
2023-02-21T07:50:17.105Z,26.55
2023-02-21T07:52:47.336Z,35.17
2023-02-21T07:55:15.818Z,34.88
2023-02-21T07:57:43.607Z,30.58
2023-02-21T08:00:12.395Z,33.78
2023-02-21T08:02:49.715Z,34.58
2023-02-21T08:05:19.663Z,28.00
2023-02-21T08:07:48.773Z,28.20
2023-02-21T08:10:22.568Z,32.50
2023-02-21T08:12:50.455Z,28.05
2023-02-21T08:15:18.742Z,29.83
2023-02-21T08:17:49.026Z,29.33
2023-02-21T08:20:17.206Z,33.90
2023-02-21T08:22:45.104Z,29.90
2023-02-21T08:25:15.825Z,28.00
2023-02-21T08:27:44.304Z,29.75
2023-02-21T08:30:14.910Z,27.67
2023-02-21T08:32:43.891Z,27.90
2023-02-21T08:35:14.529Z,30.98
2023-02-21T08:37:45.447Z,28.63
2023-02-21T08:40:15.482Z,28.95
2023-02-21T08:42:43.303Z,30.88
2023-02-21T08:45:17.206Z,32.05
2023-02-21T08:47:45.669Z,32.95
2023-02-21T08:50:13.539Z,29.30
2023-02-21T08:52:41.478Z,37.10
2023-02-21T08:55:09.655Z,30.13
2023-02-21T08:57:38.843Z,31.13
2023-02-21T09:00:10.514Z,34.53
2023-02-21T09:02:40.860Z,35.05
2023-02-21T09:05:10.284Z,32.47
2023-02-21T09:07:38.146Z,47.33
2023-02-21T09:10:09.788Z,28.55
2023-02-21T09:12:39.920Z,29.65
2023-02-21T09:15:09.033Z,33.38
2023-02-21T09:17:37.066Z,30.10
2023-02-21T09:20:07.147Z,35.08
2023-02-21T09:22:35.510Z,35.28
2023-02-21T09:25:04.624Z,33.00
2023-02-21T09:27:38.227Z,31.20
2023-02-21T09:30:11.276Z,24.83
2023-02-21T09:32:39.732Z,32.47
2023-02-21T09:35:08.517Z,30.70
2023-02-21T09:37:39.005Z,33.25
2023-02-21T09:40:12.930Z,27.90
2023-02-21T09:42:41.416Z,37.67
2023-02-21T09:45:16.801Z,30.70
2023-02-21T09:47:46.394Z,30.00
2023-02-21T09:50:19.257Z,35.45
2023-02-21T09:52:48.097Z,28.45
2023-02-21T09:55:26.256Z,34.15
2023-02-21T09:57:54.083Z,34.45
2023-02-21T10:00:26.929Z,28.77
2023-02-21T10:03:04.101Z,35.53
2023-02-21T10:05:44.563Z,33.20
2023-02-21T10:08:23.396Z,31.10
2023-02-21T10:10:55.568Z,28.98
2023-02-21T10:13:39.370Z,32.88
2023-02-21T10:16:14.037Z,33.30
2023-02-21T10:18:48.649Z,32.28
2023-02-21T10:21:24.672Z,26.30
2023-02-21T10:23:55.303Z,24.83
2023-02-21T10:26:27.337Z,30.17
2023-02-21T10:28:56.996Z,33.30
2023-02-21T10:31:33.716Z,28.00
2023-02-21T10:34:02.580Z,33.25
2023-02-21T10:36:30.489Z,30.30
2023-02-21T10:39:05.059Z,31.48
2023-02-21T10:41:37.644Z,29.23
2023-02-21T10:46:45.371Z,29.73
2023-02-21T10:49:24.679Z,29.50
2023-02-21T10:52:07.100Z,25.65
2023-02-21T10:54:35.617Z,26.48
2023-02-21T10:57:05.511Z,25.58
2023-02-21T10:59:35.836Z,24.75
2023-02-21T11:02:27.243Z,23.40
2023-02-21T11:04:56.101Z,24.33
2023-02-21T11:07:24.561Z,25.33
2023-02-21T11:09:52.406Z,22.35
2023-02-21T11:12:24.368Z,23.73
2023-02-21T11:15:18.605Z,22.60
2023-02-21T11:18:05.038Z,21.38
2023-02-21T11:20:32.876Z,24.27
2023-02-21T11:23:00.875Z,20.88
2023-02-21T11:25:31.960Z,21.10
2023-02-21T11:28:06.538Z,23.05
2023-02-21T11:30:37.272Z,17.83
2023-02-21T11:33:08.847Z,21.58
2023-02-21T11:35:40.784Z,21.13
2023-02-21T11:38:10.428Z,20.40
2023-02-21T11:40:44.352Z,20.42
2023-02-21T11:43:24.872Z,21.25
2023-02-21T11:46:10.372Z,18.67
2023-02-21T11:48:46.651Z,19.08
2023-02-21T11:51:31.312Z,19.95
2023-02-21T11:53:59.241Z,19.17
2023-02-21T11:56:35.245Z,19.92
2023-02-21T11:59:13.134Z,17.52
2023-02-21T12:01:50.079Z,15.35
2023-02-21T12:04:34.949Z,14.68
2023-02-21T12:07:13.231Z,20.48
2023-02-21T12:09:49.571Z,19.73
2023-02-21T12:12:34.713Z,14.85
2023-02-21T12:15:14.415Z,15.93
2023-02-21T12:18:04.092Z,15.80
2023-02-21T12:20:51.357Z,14.32
2023-02-21T12:23:26.446Z,13.05
2023-02-21T12:26:09.962Z,16.23
2023-02-21T12:29:00.556Z,15.02
2023-02-21T12:31:41.597Z,12.13
2023-02-21T12:34:30.310Z,15.60
2023-02-21T12:37:15.441Z,12.05
2023-02-21T12:40:11.552Z,14.45
2023-02-21T12:42:55.651Z,13.82
2023-02-21T12:48:38.073Z,11.90
2023-02-21T12:51:10.727Z,12.20
2023-02-21T12:56:16.154Z,12.85
2023-02-21T12:58:48.704Z,14.35
2023-02-21T13:01:21.696Z,9.35
2023-02-21T13:03:57.631Z,10.02
2023-02-21T13:06:31.586Z,10.70
2023-02-21T13:09:18.394Z,9.70
2023-02-21T13:11:56.034Z,10.70
2023-02-21T13:14:28.216Z,10.25
2023-02-21T13:16:56.349Z,9.60
2023-02-21T13:19:26.916Z,10.95
2023-02-21T13:22:22.129Z,8.85
2023-02-21T13:27:58.962Z,8.07
2023-02-21T13:30:38.957Z,8.17
2023-02-21T13:33:07.819Z,8.90
2023-02-21T13:35:38.762Z,9.15
2023-02-21T13:38:08.763Z,10.80
2023-02-21T13:40:50.979Z,9.48
2023-02-21T13:43:25.317Z,7.95
2023-02-21T13:45:53.721Z,10.73
2023-02-21T13:48:25.887Z,9.18
2023-02-21T13:50:55.569Z,8.07
2023-02-21T13:53:25.961Z,7.15
2023-02-21T13:56:26.408Z,8.38
2023-02-21T13:59:34.315Z,6.38
2023-02-21T14:02:23.010Z,8.27
2023-02-21T14:05:01.582Z,9.05
2023-02-21T14:07:46.077Z,8.00
2023-02-21T14:10:39.927Z,8.02
2023-02-21T14:13:21.279Z,6.47
2023-02-21T14:15:57.319Z,7.60
2023-02-21T14:18:29.160Z,8.27
2023-02-21T14:20:58.006Z,9.37
2023-02-21T14:23:42.027Z,9.65
2023-02-21T14:26:41.454Z,8.02
2023-02-21T14:29:32.645Z,8.20
2023-02-21T14:32:29.155Z,7.90
2023-02-21T14:34:59.947Z,7.25
2023-02-21T14:37:36.468Z,8.20
2023-02-21T14:40:21.677Z,10.57
2023-02-21T14:43:02.420Z,8.15
2023-02-21T14:45:52.687Z,6.07
2023-02-21T14:48:46.881Z,7.82
2023-02-21T14:51:58.068Z,7.03
2023-02-21T14:54:44.958Z,8.90
2023-02-21T14:57:34.998Z,9.50
2023-02-21T15:00:15.077Z,8.73
2023-02-21T15:02:49.682Z,9.80
2023-02-21T15:05:23.508Z,12.63
2023-02-21T15:08:00.778Z,7.50
2023-02-21T15:10:30.252Z,9.88
2023-02-21T15:13:00.589Z,9.30
2023-02-21T15:15:30.948Z,8.82
2023-02-21T15:18:04.388Z,6.97
2023-02-21T15:20:35.442Z,11.80
2023-02-21T15:23:12.630Z,7.93
2023-02-21T15:25:41.014Z,10.60
2023-02-21T15:28:21.317Z,7.43
2023-02-21T15:30:59.181Z,6.22
2023-02-21T15:33:28.056Z,8.40
2023-02-21T15:36:00.962Z,7.47
2023-02-21T15:38:33.276Z,8.73
2023-02-21T15:41:06.739Z,10.25
2023-02-21T15:43:43.562Z,9.75
2023-02-21T15:46:16.632Z,9.95
2023-02-21T15:48:44.895Z,13.20
2023-02-21T15:51:14.790Z,9.48
2023-02-21T15:53:42.757Z,9.32
2023-02-21T15:56:23.397Z,8.82
2023-02-21T15:59:09.497Z,8.63
2023-02-21T16:01:37.622Z,9.80
2023-02-21T16:04:16.540Z,12.95
2023-02-21T16:06:55.759Z,11.52
2023-02-21T16:09:27.983Z,11.07
2023-02-21T16:12:01.151Z,12.63
2023-02-21T16:14:39.758Z,13.25
2023-02-21T16:17:21.985Z,14.77
2023-02-21T16:19:53.801Z,12.68
2023-02-21T16:22:38.739Z,12.10
2023-02-21T16:25:18.442Z,9.15
2023-02-21T16:27:50.164Z,10.70
2023-02-21T16:30:20.994Z,10.87
2023-02-21T16:32:50.455Z,14.80
2023-02-21T16:35:21.472Z,12.10
2023-02-21T16:37:53.470Z,12.15
2023-02-21T16:40:25.037Z,15.10
2023-02-21T16:42:54.360Z,14.03
2023-02-21T16:45:22.878Z,13.00
2023-02-21T16:47:56.490Z,11.75
2023-02-21T16:50:29.830Z,10.18
2023-02-21T16:52:59.443Z,14.50
2023-02-21T16:55:27.792Z,14.27
2023-02-21T16:58:00.367Z,11.68
2023-02-21T17:02:55.833Z,12.57
2023-02-21T17:05:24.808Z,13.75
2023-02-21T17:07:53.705Z,13.68
2023-02-21T17:10:23.032Z,17.85
2023-02-21T17:12:50.907Z,18.08
2023-02-21T17:15:18.887Z,16.98
2023-02-21T17:17:53.270Z,15.52
2023-02-21T17:20:23.098Z,16.95
2023-02-21T17:22:51.305Z,14.60
2023-02-21T17:25:19.981Z,17.45
2023-02-21T17:27:49.448Z,12.48
2023-02-21T17:30:19.584Z,13.05
2023-02-21T17:32:47.653Z,12.77
2023-02-21T17:35:20.544Z,16.23
2023-02-21T17:37:49.647Z,17.40
2023-02-21T17:40:18.995Z,18.23
2023-02-21T17:42:46.924Z,14.90
2023-02-21T17:45:18.749Z,16.95
2023-02-21T17:47:46.771Z,17.00
2023-02-21T17:50:14.781Z,15.30
2023-02-21T17:52:43.178Z,12.05
2023-02-21T17:55:17.660Z,14.73
2023-02-21T17:57:45.654Z,13.02
2023-02-21T18:00:23.110Z,20.05
2023-02-21T18:02:51.344Z,15.23
2023-02-21T18:05:19.911Z,13.02
2023-02-21T18:07:49.109Z,19.42
2023-02-21T18:10:17.929Z,12.15
2023-02-21T18:12:48.176Z,16.60
2023-02-21T18:15:17.572Z,25.88
2023-02-21T18:17:46.923Z,20.95
2023-02-21T18:20:16.019Z,25.98
2023-02-21T18:22:44.429Z,23.63
2023-02-21T18:25:14.523Z,21.25
2023-02-21T18:27:42.582Z,21.15
2023-02-21T18:30:11.706Z,18.65
2023-02-21T18:32:39.486Z,19.83
2023-02-21T18:35:09.227Z,18.27
2023-02-21T18:37:37.026Z,22.40
2023-02-21T18:40:06.617Z,20.92
2023-02-21T18:42:34.531Z,20.98
2023-02-21T18:45:02.345Z,22.40
2023-02-21T18:47:31.912Z,23.58
2023-02-21T18:49:59.801Z,23.48
2023-02-21T18:52:29.532Z,25.63
2023-02-21T18:55:03.252Z,17.35
2023-02-21T18:57:31.540Z,24.02
2023-02-21T18:59:59.722Z,22.77
2023-02-21T19:02:27.731Z,21.90
2023-02-21T19:04:55.573Z,20.92
2023-02-21T19:07:23.482Z,22.33
2023-02-21T19:09:52.534Z,19.42
2023-02-21T19:12:20.358Z,21.55
2023-02-21T19:14:48.218Z,26.23
2023-02-21T19:17:16.004Z,24.77
2023-02-21T19:19:43.800Z,22.10
2023-02-21T19:22:11.575Z,18.10
2023-02-21T19:24:39.370Z,21.77
2023-02-21T19:27:08.876Z,20.60
2023-02-21T19:29:37.144Z,18.48
2023-02-21T19:32:05.306Z,25.95
2023-02-21T19:34:33.194Z,20.13
2023-02-21T19:37:00.999Z,19.92
2023-02-21T19:39:28.827Z,18.85
2023-02-21T19:41:56.606Z,16.83
2023-02-21T19:44:25.867Z,21.20
2023-02-21T19:46:53.755Z,23.30
2023-02-21T19:49:22.020Z,22.90
2023-02-21T19:51:52.599Z,21.60
2023-02-21T19:54:22.779Z,18.95
2023-02-21T19:56:50.889Z,17.63
2023-02-21T19:59:19.330Z,16.67
2023-02-21T20:01:48.999Z,19.65
2023-02-21T20:04:18.671Z,19.73
2023-02-21T20:06:48.130Z,19.70
2023-02-21T20:09:15.913Z,19.00
2023-02-21T20:11:43.825Z,19.17
2023-02-21T20:14:13.197Z,17.80
2023-02-21T20:16:42.126Z,20.67
2023-02-21T20:19:12.101Z,19.30
2023-02-21T20:21:40.580Z,16.10
2023-02-21T20:24:08.505Z,19.08
2023-02-21T20:26:36.305Z,21.55
2023-02-21T20:29:04.374Z,20.08
2023-02-21T20:31:35.572Z,18.50
2023-02-21T20:34:05.320Z,17.13
2023-02-21T20:36:36.370Z,16.02
2023-02-21T20:39:05.144Z,16.35
2023-02-21T20:41:35.491Z,20.50
2023-02-21T20:44:03.465Z,21.27
2023-02-21T20:46:32.362Z,13.93
2023-02-21T20:49:01.741Z,15.80
2023-02-21T20:51:30.740Z,21.73
2023-02-21T20:54:01.094Z,19.63
2023-02-21T20:56:33.839Z,18.88
2023-02-21T20:59:01.833Z,19.33
2023-02-21T21:01:29.637Z,17.67
2023-02-21T21:03:57.597Z,16.95
2023-02-21T21:06:26.219Z,15.73
2023-02-21T21:08:54.170Z,16.23
2023-02-21T21:11:23.603Z,17.45
2023-02-21T21:13:51.583Z,16.35
2023-02-21T21:16:20.174Z,15.63
2023-02-21T21:18:48.063Z,15.75
2023-02-21T21:21:16.282Z,17.02
2023-02-21T21:23:44.143Z,14.20
2023-02-21T21:26:12.113Z,16.33
2023-02-21T21:28:41.446Z,16.70
2023-02-21T21:31:09.932Z,19.35
2023-02-21T21:33:37.692Z,14.68
2023-02-21T21:36:09.073Z,15.05
2023-02-21T21:38:40.522Z,14.73
2023-02-21T21:41:13.694Z,17.67
2023-02-21T21:43:43.925Z,16.15
2023-02-21T21:46:13.435Z,18.08
2023-02-21T21:48:44.207Z,17.75
2023-02-21T21:51:14.268Z,15.90
2023-02-21T21:53:42.550Z,12.18
2023-02-21T21:56:11.289Z,20.85
2023-02-21T21:58:39.162Z,16.35
2023-02-21T22:01:08.464Z,15.57
2023-02-21T22:03:36.241Z,14.85
2023-02-21T22:06:10.890Z,16.42
2023-02-21T22:08:38.975Z,14.40
2023-02-21T22:11:09.717Z,14.70
2023-02-21T22:13:37.724Z,15.80
2023-02-21T22:16:05.910Z,13.43
2023-02-21T22:18:35.067Z,18.85
2023-02-21T22:21:03.200Z,20.13
2023-02-21T22:23:30.972Z,15.98
2023-02-21T22:25:58.952Z,20.52
2023-02-21T22:28:27.004Z,16.08
2023-02-21T22:30:55.385Z,17.20
2023-02-21T22:33:23.252Z,13.35
2023-02-21T22:35:52.344Z,14.18
2023-02-21T22:38:20.176Z,14.25
2023-02-21T22:40:47.980Z,12.68
2023-02-21T22:43:17.745Z,11.30
2023-02-21T22:45:49.793Z,13.30
2023-02-21T22:48:20.872Z,12.65
2023-02-21T22:50:49.916Z,14.25
2023-02-21T22:53:21.125Z,12.40
2023-02-21T22:55:51.878Z,12.10
2023-02-21T22:58:21.277Z,16.95
2023-02-21T23:00:50.308Z,11.57
2023-02-21T23:06:36.220Z,14.45
2023-02-21T23:09:12.077Z,15.00
2023-02-21T23:11:40.869Z,12.77
2023-02-21T23:14:09.390Z,14.85
2023-02-21T23:16:38.145Z,18.05
2023-02-21T23:19:06.790Z,12.82
2023-02-21T23:21:36.684Z,17.63
2023-02-21T23:24:04.953Z,12.75
2023-02-21T23:26:32.918Z,16.10
2023-02-21T23:29:00.873Z,13.43
2023-02-21T23:31:28.954Z,14.95
2023-02-21T23:33:56.797Z,14.05
2023-02-21T23:36:24.736Z,12.85
2023-02-21T23:38:53.870Z,16.27
2023-02-21T23:41:21.624Z,11.38
2023-02-21T23:43:51.345Z,13.25
2023-02-21T23:46:22.997Z,11.70
2023-02-21T23:48:53.590Z,13.13
2023-02-21T23:51:22.243Z,12.05
2023-02-21T23:53:50.243Z,16.23
2023-02-21T23:56:19.370Z,19.77
2023-02-21T23:58:47.482Z,17.83
